Time;durP1;ratioP1;P1;durP2;ratioP2;P2;SDS_P1;SDS_P2;PMS_P1;PMS_P2;Temp;Humidity;BMP_temperature;BMP_pressure;BME280_temperature;BME280_humidity;BME280_pressure;Samples;Min_cycle;Max_cycle;Signal;HPM_P1;HPM_P2
2022/12/15 00:39:33;;;;;;;21.37;10.63;;;;;;;-9.12;89.31;99739.19;5041210;28;20510;-81
2022/12/15 00:42:00;;;;;;;18.17;10.73;;;;;;;-9.00;89.80;99754.72;5037473;28;20475;-81
2022/12/15 00:44:26;;;;;;;24.00;11.37;;;;;;;-8.85;91.12;99756.44;5044600;28;21787;-81
2022/12/15 00:46:53;;;;;;;24.97;12.57;;;;;;;-8.67;91.74;99761.59;5036785;28;20855;-81
2022/12/15 01:22:10;;;;;;;17.63;10.30;;;;;;;-7.12;94.65;99747.22;5042001;28;20251;-81
2022/12/15 01:24:37;;;;;;;21.87;10.93;;;;;;;-7.09;94.41;99753.25;5042489;28;20214;-81
2022/12/15 01:27:03;;;;;;;20.13;10.93;;;;;;;-7.08;94.57;99754.97;5047064;28;20235;-80
2022/12/15 01:29:33;;;;;;;17.97;10.43;;;;;;;-7.08;94.36;99754.97;5043590;28;20222;-81
2022/12/15 01:32:00;;;;;;;17.40;10.10;;;;;;;-7.09;94.00;99758.44;5051922;28;20210;-81
2022/12/15 01:34:28;;;;;;;19.37;10.50;;;;;;;-7.12;94.03;99748.09;5042962;28;20210;-80
2022/12/15 01:36:54;;;;;;;17.03;11.10;;;;;;;-7.16;93.69;99746.38;5046350;28;20569;-81
2022/12/15 01:39:20;;;;;;;18.17;9.67;;;;;;;-7.20;93.33;99755.06;5048949;28;20225;-81
2022/12/15 01:41:46;;;;;;;16.63;10.80;;;;;;;-7.25;92.70;99741.28;5045427;28;20206;-81
2022/12/15 01:44:16;;;;;;;21.57;10.40;;;;;;;-7.30;92.57;99755.97;5048797;28;20801;-81
2022/12/15 01:46:42;;;;;;;16.97;10.13;;;;;;;-7.33;92.14;99768.03;5051230;28;20229;-81
2022/12/15 01:49:17;;;;;;;16.27;10.57;;;;;;;-7.37;92.73;99764.66;5044477;28;21136;-80
2022/12/15 01:51:49;;;;;;;17.20;10.77;;;;;;;-7.39;92.49;99759.47;5052095;28;20539;-81
2022/12/15 01:54:19;;;;;;;16.77;9.83;;;;;;;-7.41;92.44;99760.34;5048247;28;20196;-81
2022/12/15 01:56:49;;;;;;;15.70;9.47;;;;;;;-7.42;91.98;99763.81;5046279;28;21667;-81
2022/12/15 01:59:21;;;;;;;16.70;9.73;;;;;;;-7.45;91.86;99772.44;5049115;28;20232;-81
2022/12/15 02:01:47;;;;;;;17.70;10.27;;;;;;;-7.44;92.15;99788.81;5048520;28;20232;-80
2022/12/15 02:04:16;;;;;;;15.97;10.10;;;;;;;-7.40;91.98;99777.59;5050515;28;20288;-82
2022/12/15 02:06:42;;;;;;;15.23;9.33;;;;;;;-7.37;92.12;99777.56;5053947;28;20236;-81
2022/12/15 02:09:10;;;;;;;15.83;9.67;;;;;;;-7.32;92.28;99778.38;5050584;28;20230;-81
2022/12/15 02:11:56;;;;;;;14.00;9.03;;;;;;;-7.26;92.08;99777.50;5042917;28;20672;-82
2022/12/15 02:14:33;;;;;;;18.57;9.00;;;;;;;-7.24;92.31;99774.03;5051767;28;20774;-81
2022/12/15 02:17:13;;;;;;;15.03;8.53;;;;;;;-7.21;91.78;99780.94;5048636;28;20635;-81
2022/12/15 02:20:17;;;;;;;15.07;8.07;;;;;;;-7.17;91.47;99780.06;5042077;28;20614;-82
2022/12/15 02:23:07;;;;;;;18.57;9.63;;;;;;;-7.13;91.86;99786.91;5021013;28;20202;-80
2022/12/15 02:25:50;;;;;;;14.70;9.30;;;;;;;-7.13;90.97;99792.09;5042332;28;20198;-80
2022/12/15 02:28:30;;;;;;;12.67;7.67;;;;;;;-7.14;91.25;99788.63;5046225;28;20276;-81
2022/12/15 02:33:52;;;;;;;13.80;8.77;;;;;;;-7.18;90.90;99789.53;5043087;28;20299;-82
2022/12/15 02:36:27;;;;;;;19.30;9.23;;;;;;;-7.21;90.97;99797.31;5045770;28;20205;-81
2022/12/15 02:38:53;;;;;;;16.20;9.70;;;;;;;-7.24;90.50;99799.06;5044837;28;20233;-80
2022/12/15 02:41:45;;;;;;;15.70;10.13;;;;;;;-7.29;90.56;99791.31;5054663;28;20711;-81
2022/12/15 02:44:15;;;;;;;15.00;9.43;;;;;;;-7.32;90.58;99796.50;5039896;28;20210;-82
2022/12/15 02:46:54;;;;;;;16.03;8.23;;;;;;;-7.36;90.13;99805.16;5041121;28;20233;-80
2022/12/15 02:49:31;;;;;;;17.37;9.37;;;;;;;-7.39;90.12;99808.63;5051138;28;20229;-81
2022/12/15 02:52:14;;;;;;;17.10;10.37;;;;;;;-7.39;90.09;99810.34;5053053;28;21165;-82
2022/12/15 02:54:57;;;;;;;13.33;9.60;;;;;;;-7.39;89.40;99805.16;5052200;28;20204;-81
2022/12/15 02:57:32;;;;;;;17.03;9.73;;;;;;;-7.36;90.11;99811.19;5047186;28;20198;-81
2022/12/15 03:00:04;;;;;;;15.30;8.80;;;;;;;-7.29;90.80;99822.34;5038803;28;20229;-81
2022/12/15 03:02:36;;;;;;;20.00;10.47;;;;;;;-7.20;90.66;99824.91;5039774;28;20210;-81
2022/12/15 03:05:03;;;;;;;20.77;9.30;;;;;;;-7.09;90.80;99814.50;5051145;28;20678;-81
2022/12/15 03:07:30;;;;;;;15.33;8.93;;;;;;;-6.95;90.92;99815.25;5055200;28;20881;-80
2022/12/15 03:09:59;;;;;;;17.70;10.33;;;;;;;-6.84;91.18;99815.22;5045594;28;20591;-81
2022/12/15 03:12:26;;;;;;;14.40;8.47;;;;;;;-6.77;91.71;99812.56;5040164;28;20216;-81
2022/12/15 03:14:53;;;;;;;14.70;9.60;;;;;;;-6.66;91.53;99821.13;5043771;28;20256;-80
2022/12/15 03:17:19;;;;;;;14.80;8.80;;;;;;;-6.56;91.48;99815.88;5050615;28;20585;-81
2022/12/15 03:19:47;;;;;;;16.40;9.70;;;;;;;-6.46;91.22;99820.13;5041075;28;20233;-81
2022/12/15 03:22:14;;;;;;;14.33;9.73;;;;;;;-6.40;90.98;99823.50;5046451;28;20205;-82
2022/12/15 03:24:40;;;;;;;14.40;8.80;;;;;;;-6.29;91.39;99825.16;5035516;28;20209;-81
2022/12/15 03:27:07;;;;;;;14.43;9.13;;;;;;;-6.24;90.95;99821.63;5044054;28;20226;-81
2022/12/15 03:29:33;;;;;;;12.37;9.37;;;;;;;-6.19;90.68;99827.66;5033135;28;20228;-81
2022/12/15 03:32:00;;;;;;;17.77;10.57;;;;;;;-6.10;90.36;99826.72;5049378;28;20227;-82
2022/12/15 03:34:26;;;;;;;11.53;7.30;;;;;;;-6.06;90.41;99818.88;5041536;28;20206;-82
2022/12/15 03:36:54;;;;;;;17.33;9.53;;;;;;;-6.00;89.92;99824.00;5044430;28;20207;-80
2022/12/15 03:39:20;;;;;;;11.87;8.47;;;;;;;-5.96;89.69;99822.25;5043184;28;20225;-81
2022/12/15 03:41:47;;;;;;;13.30;8.77;;;;;;;-5.91;89.49;99828.22;5038491;28;20206;-81
2022/12/15 03:44:13;;;;;;;18.60;9.73;;;;;;;-5.85;89.15;99829.88;5045524;28;20217;-82
2022/12/15 03:46:40;;;;;;;15.30;9.30;;;;;;;-5.79;88.61;99840.19;5048463;28;20240;-81
2022/12/15 03:49:06;;;;;;;13.87;8.53;;;;;;;-5.75;88.29;99840.16;5050228;28;20225;-81
2022/12/15 03:51:33;;;;;;;14.50;8.97;;;;;;;-5.71;88.05;99841.81;5048309;28;20607;-81
2022/12/15 03:54:01;;;;;;;14.43;7.50;;;;;;;-5.68;87.71;99849.56;5039127;28;20217;-81
2022/12/15 03:56:27;;;;;;;16.60;9.07;;;;;;;-5.62;87.50;99852.09;5044990;28;20201;-81
2022/12/15 03:58:53;;;;;;;11.07;8.07;;;;;;;-5.58;86.88;99850.34;5042920;28;20213;-82
2022/12/15 04:01:27;;;;;;;14.07;8.33;;;;;;;-5.55;86.42;99852.06;5040597;28;20210;-82
2022/12/15 04:03:54;;;;;;;13.37;8.87;;;;;;;-5.52;86.40;99859.78;5036857;28;20202;-82
2022/12/15 04:06:20;;;;;;;14.20;8.53;;;;;;;-5.50;86.20;99855.44;5041174;28;20202;-82
2022/12/15 04:08:47;;;;;;;14.30;9.00;;;;;;;-5.48;85.60;99864.06;5043568;28;20229;-81
2022/12/15 04:11:15;;;;;;;16.27;9.33;;;;;;;-5.45;85.59;99853.66;5038899;28;20308;-82
2022/12/15 04:13:41;;;;;;;14.27;8.93;;;;;;;-5.44;85.54;99855.38;5044943;28;20645;-82
2022/12/15 04:16:08;;;;;;;14.47;8.87;;;;;;;-5.44;85.05;99856.25;5045614;28;20300;-81
2022/12/15 04:18:35;;;;;;;14.27;9.63;;;;;;;-5.43;85.01;99863.16;5040271;28;20263;-81
2022/12/15 04:21:00;;;;;;;14.50;8.83;;;;;;;-5.40;84.54;99872.63;5040363;28;20209;-82
2022/12/15 04:23:27;;;;;;;12.33;8.17;;;;;;;-5.41;84.24;99870.91;5034003;28;20202;-82
2022/12/15 05:31:54;;;;;;;12.97;8.03;;;;;;;-4.91;80.57;99897.13;5042459;28;20247;-81
2022/12/15 05:34:25;;;;;;;12.03;7.73;;;;;;;-4.86;80.51;99898.81;5043211;28;20673;-80
2022/12/15 05:36:52;;;;;;;14.60;8.23;;;;;;;-4.88;80.34;99903.16;5046703;28;20198;-80
2022/12/15 05:39:19;;;;;;;11.80;8.13;;;;;;;-4.86;80.26;99899.66;5039213;28;20584;-80
2022/12/15 05:41:45;;;;;;;12.67;7.50;;;;;;;-4.84;79.99;99910.03;5049722;28;20205;-80
2022/12/15 05:44:12;;;;;;;13.00;8.13;;;;;;;-4.84;79.93;99903.09;5045178;28;20205;-80
2022/12/15 05:46:39;;;;;;;12.83;8.60;;;;;;;-4.84;79.82;99910.91;5044725;28;20208;-81
2022/12/15 05:49:06;;;;;;;10.97;8.07;;;;;;;-4.83;79.77;99906.53;5049670;28;20317;-80
2022/12/15 05:51:39;;;;;;;17.73;12.00;;;;;;;-4.81;79.88;99920.34;5042644;28;20205;-81
2022/12/15 05:54:06;;;;;;;12.57;7.83;;;;;;;-4.80;79.68;99911.69;5049650;28;20202;-83
2022/12/15 05:56:32;;;;;;;13.57;8.67;;;;;;;-4.78;79.66;99918.59;5050054;28;20227;-83
2022/12/15 05:58:59;;;;;;;13.40;8.17;;;;;;;-4.76;79.68;99915.97;5045833;28;20707;-82
2022/12/15 06:01:26;;;;;;;15.23;7.93;;;;;;;-4.75;79.67;99913.34;5044457;28;20291;-83
2022/12/15 06:03:52;;;;;;;18.17;6.83;;;;;;;-4.72;79.58;99915.91;5041399;28;20194;-83
2022/12/15 06:06:19;;;;;;;13.40;7.43;;;;;;;-4.69;79.55;99918.47;5044609;28;20208;-83
2022/12/15 06:08:47;;;;;;;15.23;8.23;;;;;;;-4.67;79.37;99921.06;5046803;28;20250;-83
2022/12/15 06:11:16;;;;;;;14.17;8.40;;;;;;;-4.67;79.46;99928.84;5045428;28;20221;-82
2022/12/15 06:13:43;;;;;;;11.97;7.50;;;;;;;-4.67;79.60;99928.84;5047099;28;20234;-81
2022/12/15 06:16:12;;;;;;;13.60;7.87;;;;;;;-4.66;79.67;99943.56;5047344;28;20218;-82
2022/12/15 06:18:42;;;;;;;13.17;8.13;;;;;;;-4.64;79.70;99936.59;5038772;28;20210;-81
2022/12/15 06:21:11;;;;;;;18.70;9.83;;;;;;;-4.62;79.58;99951.28;5047970;28;20213;-82
2022/12/15 06:23:37;;;;;;;18.50;9.87;;;;;;;-4.60;79.42;99951.25;5049827;28;20228;-82
2022/12/15 06:26:11;;;;;;;14.00;8.57;;;;;;;-4.60;79.57;99952.13;5041653;28;20213;-81
2022/12/15 06:28:38;;;;;;;14.37;9.20;;;;;;;-4.60;79.40;99956.44;5046938;28;20222;-80
2022/12/15 06:31:06;;;;;;;14.10;8.70;;;;;;;-4.58;79.70;99950.38;5047904;28;20221;-80
2022/12/15 06:33:33;;;;;;;14.63;9.57;;;;;;;-4.53;79.89;99957.25;5050744;28;20202;-80
2022/12/15 06:36:02;;;;;;;16.40;9.13;;;;;;;-4.56;79.80;99959.00;5046400;28;20206;-80
2022/12/15 06:38:29;;;;;;;15.40;9.53;;;;;;;-4.51;79.92;99964.16;5044428;28;20199;-82
2022/12/15 06:40:56;;;;;;;17.87;9.00;;;;;;;-4.48;80.01;99966.72;5045896;28;20314;-82
2022/12/15 06:43:26;;;;;;;19.83;9.20;;;;;;;-4.43;80.07;99964.88;5048352;28;20206;-83
2022/12/15 06:45:55;;;;;;;13.73;8.33;;;;;;;-4.42;80.09;99966.59;5039358;28;20198;-83
2022/12/15 06:48:23;;;;;;;15.53;9.40;;;;;;;-4.41;80.12;99968.31;5047907;28;20219;-83
2022/12/15 06:50:50;;;;;;;12.47;8.40;;;;;;;-4.40;80.20;99970.03;5044871;28;20585;-83
2022/12/15 06:53:18;;;;;;;17.60;8.80;;;;;;;-4.36;80.27;99973.47;5049903;28;20296;-82
2022/12/15 06:55:45;;;;;;;19.13;9.47;;;;;;;-4.34;80.36;99979.50;5038779;28;20198;-83
2022/12/15 06:58:13;;;;;;;13.77;8.23;;;;;;;-4.34;79.82;99987.31;5050678;28;20229;-83
2022/12/15 07:00:42;;;;;;;11.87;8.93;;;;;;;-4.38;79.98;99989.09;5047245;28;20231;-82
2022/12/15 07:03:13;;;;;;;15.03;8.87;;;;;;;-4.42;79.72;99992.59;5048748;28;20206;-82
2022/12/15 07:05:39;;;;;;;12.70;6.83;;;;;;;-4.42;79.78;99978.75;5046436;28;20547;-83
2022/12/15 07:08:06;;;;;;;13.93;9.07;;;;;;;-4.44;79.50;99981.34;5048979;28;20632;-82
2022/12/15 07:10:38;;;;;;;14.60;10.13;;;;;;;-4.45;79.62;99992.63;5047078;28;20237;-82
2022/12/15 07:13:04;;;;;;;15.57;9.10;;;;;;;-4.48;79.73;99990.09;5040878;28;20205;-82
2022/12/15 07:15:31;;;;;;;14.57;9.47;;;;;;;-4.50;79.68;99991.84;5052327;28;20201;-82
2022/12/15 07:17:59;;;;;;;14.90;9.70;;;;;;;-4.51;79.86;100003.13;5042448;28;20588;-82
2022/12/15 07:20:25;;;;;;;14.10;9.27;;;;;;;-4.52;80.00;100009.19;5043674;28;20714;-82
2022/12/15 07:22:52;;;;;;;13.67;9.17;;;;;;;-4.53;79.70;100009.22;5043556;28;20232;-83
2022/12/15 07:25:19;;;;;;;13.50;8.93;;;;;;;-4.59;79.72;100013.59;5048763;28;20197;-83
2022/12/15 07:27:46;;;;;;;16.23;10.47;;;;;;;-4.63;79.99;100017.09;5040226;28;20253;-83
2022/12/15 07:30:16;;;;;;;14.13;9.50;;;;;;;-4.64;80.05;100027.50;5047952;28;20345;-84
2022/12/15 07:32:45;;;;;;;17.33;10.33;;;;;;;-4.68;80.15;100020.66;5039548;28;20210;-83
2022/12/15 07:35:13;;;;;;;15.43;9.53;;;;;;;-4.68;80.46;100028.44;5039472;28;20578;-84
2022/12/15 07:37:40;;;;;;;13.73;8.83;;;;;;;-4.69;80.23;100032.78;5050239;28;20209;-83
2022/12/15 07:40:08;;;;;;;15.77;9.37;;;;;;;-4.68;80.37;100042.31;5049454;28;20266;-82
2022/12/15 07:42:34;;;;;;;15.77;9.13;;;;;;;-4.70;80.37;100043.19;5047634;28;20214;-84
2022/12/15 07:45:01;;;;;;;17.07;9.63;;;;;;;-4.71;80.36;100050.13;5042764;28;20205;-83
2022/12/15 07:47:27;;;;;;;13.93;8.80;;;;;;;-4.71;80.49;100052.72;5044286;28;20236;-82
2022/12/15 07:49:54;;;;;;;16.17;9.77;;;;;;;-4.72;80.66;100050.16;5045054;28;20706;-82
2022/12/15 07:52:22;;;;;;;18.70;10.03;;;;;;;-4.72;81.09;100050.16;5048424;28;20573;-83
2022/12/15 07:54:56;;;;;;;14.50;9.00;;;;;;;-4.70;81.46;100051.00;5047648;28;20209;-83
2022/12/15 07:57:23;;;;;;;14.63;10.00;;;;;;;-4.70;81.43;100051.00;5043966;28;20284;-85
2022/12/15 07:59:50;;;;;;;20.13;10.30;;;;;;;-4.71;81.53;100059.66;5049360;28;20720;-84
2022/12/15 08:02:17;;;;;;;19.77;10.80;;;;;;;-4.72;81.67;100070.94;5051370;28;20599;-82
2022/12/15 08:04:44;;;;;;;21.77;11.77;;;;;;;-4.76;81.60;100058.84;5039709;28;20635;-82
2022/12/15 08:07:10;;;;;;;17.83;10.40;;;;;;;-4.77;81.70;100059.72;5049785;28;20213;-81
2022/12/15 08:09:46;;;;;;;22.80;11.33;;;;;;;-4.76;81.83;100058.84;5050992;28;20241;-85
2022/12/15 08:12:13;;;;;;;16.97;9.70;;;;;;;-4.72;82.31;100070.94;5045626;28;20213;-82
2022/12/15 08:14:39;;;;;;;16.33;10.13;;;;;;;-4.67;82.59;100075.19;5050871;28;20201;-84
2022/12/15 08:17:06;;;;;;;16.10;10.43;;;;;;;-4.59;83.94;100078.56;5057127;28;20212;-85
2022/12/15 08:19:32;;;;;;;17.77;10.73;;;;;;;-4.50;84.38;100088.00;5042395;28;20233;-84
2022/12/15 08:22:04;;;;;;;18.17;10.73;;;;;;;-4.41;84.72;100087.88;5044288;28;20591;-86
2022/12/15 08:24:31;;;;;;;18.60;11.10;;;;;;;-4.32;84.78;100081.72;5038755;28;20210;-85
2022/12/15 08:26:59;;;;;;;17.40;10.80;;;;;;;-4.25;84.82;100073.81;5039911;28;20206;-82
2022/12/15 08:29:25;;;;;;;19.00;11.00;;;;;;;-4.18;85.18;100079.81;5044223;28;20233;-85
2022/12/15 08:31:52;;;;;;;17.23;10.10;;;;;;;-4.10;85.21;100077.09;5038657;28;20206;-84
2022/12/15 08:34:19;;;;;;;18.40;10.57;;;;;;;-4.07;85.35;100080.53;5042600;28;20221;-84
2022/12/15 08:36:45;;;;;;;14.97;9.57;;;;;;;-3.98;85.28;100074.34;5046012;28;20206;-84
2022/12/15 08:39:12;;;;;;;18.37;10.93;;;;;;;-3.95;85.38;100069.13;5045923;28;20871;-83
2022/12/15 08:41:40;;;;;;;16.90;10.10;;;;;;;-3.90;85.58;100081.16;5040292;28;20587;-83
2022/12/15 08:44:08;;;;;;;17.37;11.10;;;;;;;-3.83;85.43;100087.13;5039560;28;20652;-84
2022/12/15 08:46:35;;;;;;;15.90;9.83;;;;;;;-3.77;85.85;100091.41;5047442;28;20693;-84
2022/12/15 08:49:03;;;;;;;13.63;9.57;;;;;;;-3.72;85.33;100089.59;5044779;28;20234;-83
2022/12/15 08:51:32;;;;;;;16.53;9.63;;;;;;;-3.67;85.57;100091.25;5049314;28;20210;-83
2022/12/15 08:53:59;;;;;;;17.30;9.63;;;;;;;-3.60;85.58;100090.28;5047194;28;20674;-83
2022/12/15 08:56:27;;;;;;;18.20;10.27;;;;;;;-3.53;85.01;100084.09;5044342;28;20213;-83
2022/12/15 08:58:56;;;;;;;19.17;10.00;;;;;;;-3.48;85.38;100084.03;5043743;28;20205;-84
2022/12/15 09:01:25;;;;;;;19.57;10.17;;;;;;;-3.45;84.85;100077.91;5040918;28;20203;-83
2022/12/15 09:03:56;;;;;;;16.30;10.30;;;;;;;-3.39;85.29;100096.00;5044871;28;20198;-84
2022/12/15 09:06:25;;;;;;;17.70;9.27;;;;;;;-3.35;84.83;100089.88;5041192;28;20205;-83
2022/12/15 09:08:55;;;;;;;14.47;9.97;;;;;;;-3.31;85.15;100096.78;5053341;28;20233;-83
2022/12/15 09:11:22;;;;;;;17.67;10.13;;;;;;;-3.25;84.98;100096.69;5042256;28;20582;-83
2022/12/15 09:13:48;;;;;;;14.57;9.60;;;;;;;-3.22;85.00;100101.81;5039949;28;20209;-82
2022/12/15 09:16:16;;;;;;;14.83;9.57;;;;;;;-3.18;84.59;100098.28;5033925;28;20210;-83
2022/12/15 09:18:45;;;;;;;14.30;8.80;;;;;;;-3.11;84.64;100115.53;5049913;28;20205;-83
2022/12/15 09:21:21;;;;;;;14.30;10.23;;;;;;;-3.07;84.64;100106.81;5043514;28;20206;-83
2022/12/15 09:23:50;;;;;;;14.97;10.47;;;;;;;-3.02;84.85;100110.16;5042847;28;20604;-84
2022/12/15 09:26:17;;;;;;;16.13;11.07;;;;;;;-2.98;84.48;100101.41;5052848;28;20206;-83
2022/12/15 09:28:44;;;;;;;11.03;6.37;;;;;;;-2.92;84.69;100106.53;5041316;28;20225;-83
2022/12/15 09:31:13;;;;;;;14.73;9.83;;;;;;;-2.85;84.69;100110.72;5049816;28;20213;-84
2022/12/15 09:33:41;;;;;;;17.57;10.00;;;;;;;-2.81;84.38;100109.78;5053907;28;20209;-83
2022/12/15 09:36:10;;;;;;;18.67;11.07;;;;;;;-2.75;84.79;100114.06;5049030;28;20213;-85
2022/12/15 09:38:37;;;;;;;17.60;10.97;;;;;;;-2.67;84.68;100113.91;5044769;28;20416;-84
2022/12/15 09:41:22;;;;;;;17.40;9.70;;;;;;;-2.62;84.43;100112.06;5047312;28;20229;-83
2022/12/15 09:43:54;;;;;;;18.93;11.27;;;;;;;-2.57;84.35;100115.47;5046328;28;20294;-83
2022/12/15 09:46:42;;;;;;;18.77;10.67;;;;;;;-2.51;83.84;100113.59;5047823;28;20350;-83
2022/12/15 09:49:16;;;;;;;16.03;10.40;;;;;;;-2.41;83.62;100121.25;5046647;28;20232;-82
2022/12/15 09:51:50;;;;;;;14.20;9.87;;;;;;;-2.37;83.62;100126.38;5049915;28;20301;-82
2022/12/15 09:54:17;;;;;;;16.87;11.07;;;;;;;-2.32;84.15;100127.13;5047304;28;20259;-82
2022/12/15 09:56:49;;;;;;;16.13;10.30;;;;;;;-2.25;83.47;100126.13;5047295;28;20202;-82
2022/12/15 09:59:29;;;;;;;18.03;9.90;;;;;;;-2.20;83.30;100119.09;5046482;28;20218;-83
2022/12/15 10:02:13;;;;;;;14.43;9.43;;;;;;;-2.13;83.56;100111.97;5049930;28;20209;-84
2022/12/15 10:04:48;;;;;;;15.37;9.57;;;;;;;-2.06;83.16;100123.16;5038812;28;20649;-83
2022/12/15 10:07:26;;;;;;;12.40;9.40;;;;;;;-2.03;83.21;100117.88;5046049;28;20204;-83
2022/12/15 10:09:52;;;;;;;12.50;8.63;;;;;;;-1.98;82.82;100116.03;5043663;28;20225;-82
2022/12/15 10:12:24;;;;;;;15.20;10.10;;;;;;;-1.93;82.92;100127.22;5044961;28;20744;-82
2022/12/15 10:14:54;;;;;;;17.27;9.97;;;;;;;-1.89;82.68;100124.53;5046168;28;20222;-82
2022/12/15 10:17:24;;;;;;;18.70;9.73;;;;;;;-1.87;82.51;100119.28;5041089;28;20214;-83
2022/12/15 10:19:55;;;;;;;12.53;8.90;;;;;;;-1.83;82.26;100118.31;5038107;28;20236;-82
2022/12/15 10:22:26;;;;;;;15.30;11.13;;;;;;;-1.83;82.29;100115.72;5039747;28;20300;-83
2022/12/15 10:24:53;;;;;;;19.20;11.83;;;;;;;-1.77;81.69;100126.00;5047180;28;20209;-83
2022/12/15 10:27:36;;;;;;;15.63;10.83;;;;;;;-1.75;82.09;100126.84;5043950;28;20213;-83
2022/12/15 10:30:06;;;;;;;17.53;9.73;;;;;;;-1.73;81.42;100124.19;5038199;28;21775;-83
2022/12/15 10:32:44;;;;;;;16.37;10.20;;;;;;;-1.73;81.42;100130.28;5041278;28;20216;-83
2022/12/15 10:35:15;;;;;;;15.37;10.80;;;;;;;-1.71;81.25;100128.50;5043559;28;20296;-83
2022/12/15 10:37:43;;;;;;;15.30;10.13;;;;;;;-1.69;81.46;100133.69;5038424;28;20597;-83
2022/12/15 10:40:15;;;;;;;15.50;9.73;;;;;;;-1.64;81.53;100142.28;5041354;28;20697;-83
2022/12/15 10:42:46;;;;;;;15.23;10.10;;;;;;;-1.64;81.16;100130.09;5044814;28;20289;-83
2022/12/15 10:45:32;;;;;;;14.47;9.37;;;;;;;-1.58;80.99;100142.13;5040720;28;20198;-83
2022/12/15 10:48:01;;;;;;;13.10;9.57;;;;;;;-1.55;80.73;100134.22;5037645;28;20252;-83
2022/12/15 10:50:27;;;;;;;12.87;9.50;;;;;;;-1.52;81.00;100140.25;5041566;28;20237;-83
2022/12/15 10:52:55;;;;;;;14.87;9.30;;;;;;;-1.50;80.76;100142.84;5042476;28;20559;-83
2022/12/15 10:55:35;;;;;;;19.37;10.93;;;;;;;-1.45;80.84;100141.84;5043977;28;20232;-83
2022/12/15 10:58:04;;;;;;;13.20;9.07;;;;;;;-1.43;80.52;100132.19;5040201;28;20212;-85
2022/12/15 11:00:33;;;;;;;15.50;10.20;;;;;;;-1.40;80.32;100124.28;5048089;28;20578;-82
2022/12/15 11:03:00;;;;;;;14.87;10.10;;;;;;;-1.34;80.57;100127.66;5046280;28;20267;-83
2022/12/15 11:05:26;;;;;;;16.00;9.53;;;;;;;-1.29;80.20;100138.88;5038926;28;20252;-83
2022/12/15 11:07:56;;;;;;;14.33;10.07;;;;;;;-1.30;80.37;100134.53;5046475;28;20722;-82
2022/12/15 11:10:25;;;;;;;18.47;10.23;;;;;;;-1.29;79.91;100136.25;5042226;28;20226;-84
2022/12/15 11:12:56;;;;;;;15.53;10.07;;;;;;;-1.29;80.07;100131.03;5037408;28;20204;-84
2022/12/15 11:15:45;;;;;;;15.90;9.97;;;;;;;-1.28;80.14;100138.84;5044343;28;20203;-85
2022/12/15 11:18:19;;;;;;;17.33;10.33;;;;;;;-1.26;80.06;100144.03;5043757;28;20218;-85
2022/12/15 11:20:52;;;;;;;15.17;9.57;;;;;;;-1.21;80.14;100150.00;5041959;28;20225;-83
2022/12/15 11:23:28;;;;;;;16.87;10.70;;;;;;;-1.21;79.69;100140.41;5044619;28;20197;-84
2022/12/15 11:25:59;;;;;;;15.07;10.03;;;;;;;-1.21;79.88;100145.63;5052181;28;20193;-84
2022/12/15 11:28:32;;;;;;;21.50;10.23;;;;;;;-1.18;79.65;100145.56;5044313;28;20198;-85
2022/12/15 11:31:05;;;;;;;14.30;8.80;;;;;;;-1.11;79.84;100148.91;5035798;28;20219;-83
2022/12/15 11:33:32;;;;;;;12.53;8.63;;;;;;;-1.09;80.02;100144.50;5041881;28;20194;-83
2022/12/15 11:36:09;;;;;;;14.23;9.10;;;;;;;-1.05;80.01;100146.13;5040135;28;20671;-83
2022/12/15 11:38:45;;;;;;;14.80;8.90;;;;;;;-1.02;80.05;100143.44;5049199;28;20205;-82
2022/12/15 11:41:26;;;;;;;13.17;8.37;;;;;;;-0.99;80.43;100130.28;5036733;28;20214;-83
2022/12/15 11:44:20;;;;;;;12.33;8.37;;;;;;;-0.89;80.86;100136.13;5038591;28;20572;-82
2022/12/15 11:46:55;;;;;;;14.97;8.80;;;;;;;-0.84;80.78;100140.38;5028090;28;20202;-82
2022/12/15 11:50:05;;;;;;;12.03;7.87;;;;;;;-0.81;81.09;100144.66;5044420;28;20237;-82
2022/12/15 11:52:53;;;;;;;11.90;7.77;;;;;;;-0.79;81.03;100153.34;5034211;28;20195;-80
2022/12/15 11:55:31;;;;;;;12.43;8.53;;;;;;;-0.76;81.06;100148.88;5035683;28;20202;-81
2022/12/15 11:58:24;;;;;;;14.80;9.03;;;;;;;-0.73;81.09;100154.03;5036187;28;20281;-81
2022/12/15 12:01:01;;;;;;;17.90;11.17;;;;;;;-0.68;80.90;100150.44;5037089;28;20659;-80
2022/12/15 12:03:38;;;;;;;18.70;11.33;;;;;;;-0.66;80.42;100144.28;5038017;28;20186;-82
2022/12/15 12:06:28;;;;;;;17.77;9.67;;;;;;;-0.63;80.78;100140.72;5037579;28;20197;-83
2022/12/15 12:09:12;;;;;;;15.27;8.63;;;;;;;-0.60;80.15;100141.50;5039174;28;20700;-81
2022/12/15 12:11:46;;;;;;;15.00;9.87;;;;;;;-0.60;80.21;100138.03;5051465;28;20201;-82
2022/12/15 12:14:22;;;;;;;17.17;9.03;;;;;;;-0.56;80.35;100135.31;5055990;28;20192;-82
2022/12/15 12:16:54;;;;;;;15.00;8.47;;;;;;;-0.53;79.94;100126.50;5055718;28;20752;-81
2022/12/15 12:19:24;;;;;;;12.57;8.43;;;;;;;-0.53;80.07;100127.34;5054501;28;20236;-81
2022/12/15 12:21:58;;;;;;;14.73;8.10;;;;;;;-0.52;79.74;100122.97;5055573;28;20197;-81
2022/12/15 12:24:30;;;;;;;13.47;8.20;;;;;;;-0.51;79.67;100122.94;5056541;28;20565;-81
2022/12/15 12:27:01;;;;;;;15.73;8.80;;;;;;;-0.49;79.44;100125.53;5054247;28;20200;-82
2022/12/15 12:29:33;;;;;;;11.23;7.33;;;;;;;-0.47;79.46;100123.72;5053881;28;20229;-80
2022/12/15 12:32:07;;;;;;;14.17;8.37;;;;;;;-0.44;79.39;100121.88;5054168;28;20209;-80
2022/12/15 12:34:47;;;;;;;11.40;7.90;;;;;;;-0.44;79.66;100118.41;5052767;28;20236;-81
2022/12/15 12:37:20;;;;;;;13.23;8.37;;;;;;;-0.44;79.34;100121.03;5041238;28;20197;-80
2022/12/15 12:39:48;;;;;;;14.30;8.13;;;;;;;-0.42;79.14;100124.47;5065042;28;20229;-81
2022/12/15 12:42:21;;;;;;;13.20;8.70;;;;;;;-0.38;79.04;100123.50;5056690;28;20205;-80
2022/12/15 12:44:48;;;;;;;14.97;10.03;;;;;;;-0.37;79.00;100126.06;5050340;28;20312;-80
2022/12/15 12:47:20;;;;;;;13.10;9.17;;;;;;;-0.33;78.88;100132.06;5053441;28;20652;-81
2022/12/15 12:49:50;;;;;;;12.60;9.70;;;;;;;-0.32;79.11;100127.69;5033311;28;20677;-81
2022/12/15 12:52:22;;;;;;;11.37;8.37;;;;;;;-0.28;78.86;100131.94;5049528;28;20281;-81
2022/12/15 12:54:57;;;;;;;16.53;10.20;;;;;;;-0.27;78.76;100125.81;5039725;28;20554;-81
2022/12/15 12:57:32;;;;;;;13.10;8.53;;;;;;;-0.27;78.49;100128.41;5052707;28;20255;-80
2022/12/15 13:00:01;;;;;;;18.60;9.77;;;;;;;-0.29;78.51;100124.97;5047291;28;20226;-81
2022/12/15 13:02:47;;;;;;;15.97;9.67;;;;;;;-0.29;78.59;100127.59;5047059;28;20207;-80
2022/12/15 13:05:27;;;;;;;14.93;9.13;;;;;;;-0.24;77.81;100130.97;5058096;28;20559;-81
2022/12/15 13:08:15;;;;;;;13.87;8.43;;;;;;;-0.28;77.89;100119.72;5058134;28;20221;-81
2022/12/15 13:10:43;;;;;;;13.20;8.13;;;;;;;-0.26;77.41;100127.53;5058606;28;20239;-80
2022/12/15 13:13:41;;;;;;;12.30;7.80;;;;;;;-0.28;77.66;100124.94;5057950;28;20208;-81
2022/12/15 13:16:11;;;;;;;17.97;9.10;;;;;;;-0.26;77.20;100115.28;5058254;28;20210;-81
2022/12/15 13:19:05;;;;;;;17.00;8.73;;;;;;;-0.25;77.14;100119.63;5058648;28;20224;-80
2022/12/15 13:21:54;;;;;;;14.83;8.20;;;;;;;-0.26;77.39;100120.53;5059937;28;20196;-82
2022/12/15 13:24:31;;;;;;;11.90;7.90;;;;;;;-0.25;77.36;100124.88;5059942;28;20194;-81
2022/12/15 13:27:15;;;;;;;14.23;8.90;;;;;;;-0.27;76.88;100118.81;5058707;28;20190;-82
2022/12/15 13:30:01;;;;;;;11.90;7.70;;;;;;;-0.25;77.37;100119.63;5057743;28;20234;-80
2022/12/15 13:32:34;;;;;;;9.43;6.60;;;;;;;-0.27;77.36;100118.81;5057221;28;20201;-80
2022/12/15 13:35:22;;;;;;;11.80;7.30;;;;;;;-0.25;77.43;100114.41;5056950;28;20574;-80
2022/12/15 13:37:52;;;;;;;9.00;6.10;;;;;;;-0.25;77.36;100117.00;5056993;28;20189;-82
2022/12/15 13:40:31;;;;;;;11.27;7.40;;;;;;;-0.24;77.21;100116.13;5057449;28;20222;-80
2022/12/15 13:42:59;;;;;;;11.70;7.60;;;;;;;-0.24;77.45;100120.50;5057351;28;20193;-80
2022/12/15 13:45:35;;;;;;;12.10;7.20;;;;;;;-0.24;77.23;100128.34;5056662;28;20212;-80
2022/12/15 13:48:12;;;;;;;11.87;7.87;;;;;;;-0.26;77.35;100128.38;5055339;28;20199;-80
2022/12/15 13:50:44;;;;;;;12.37;7.03;;;;;;;-0.29;77.58;100125.84;5051257;28;20689;-80
2022/12/15 13:53:20;;;;;;;10.10;7.20;;;;;;;-0.30;77.25;100126.75;5058467;28;20640;-81
2022/12/15 13:56:03;;;;;;;12.77;7.27;;;;;;;-0.33;77.45;100124.19;5060242;28;20644;-81
2022/12/15 13:58:39;;;;;;;10.60;7.20;;;;;;;-0.35;77.66;100128.63;5058084;28;20190;-81